Time;durP1;ratioP1;P1;durP2;ratioP2;P2;SDS_P1;SDS_P2;PMS_P1;PMS_P2;Temp;Humidity;BMP_temperature;BMP_pressure;BME280_temperature;BME280_humidity;BME280_pressure;Samples;Min_cycle;Max_cycle;Signal;HPM_P1;HPM_P2
2022/05/05 00:01:40;;;;;;;1.55;1.45;;;;;;;20.00;45.99;101969.50;5043975;28;20044;-52
2022/05/05 00:04:05;;;;;;;1.98;1.40;;;;;;;19.97;46.29;101969.81;5043993;28;20044;-53
2022/05/05 00:06:31;;;;;;;1.70;1.30;;;;;;;20.00;45.99;101971.34;5043520;28;20112;-54
2022/05/05 00:08:56;;;;;;;1.52;1.20;;;;;;;20.00;46.45;101971.34;5043126;28;20037;-52
2022/05/05 00:14:24;;;;;;;1.95;1.48;;;;;;;19.96;46.43;101970.81;5042908;28;20069;-52
2022/05/05 00:16:50;;;;;;;1.73;1.40;;;;;;;19.96;46.31;101968.09;5044021;28;20026;-53
2022/05/05 00:19:15;;;;;;;1.60;1.50;;;;;;;19.96;46.11;101974.38;5043433;28;20030;-53
2022/05/05 00:21:41;;;;;;;1.50;1.40;;;;;;;19.91;46.08;101971.25;5044317;28;20029;-52
2022/05/05 00:24:07;;;;;;;1.40;1.13;;;;;;;19.93;46.12;101963.88;5045471;28;20036;-50
2022/05/05 00:26:32;;;;;;;1.95;1.50;;;;;;;19.95;46.01;101967.25;5043628;28;20089;-51
2022/05/05 00:28:58;;;;;;;2.15;1.58;;;;;;;19.94;46.15;101970.97;5042584;28;20029;-51
2022/05/05 00:31:23;;;;;;;1.50;1.40;;;;;;;19.93;46.36;101971.13;5043777;28;20029;-49
2022/05/05 00:33:48;;;;;;;1.35;1.23;;;;;;;19.93;46.38;101965.72;5043606;28;20029;-50
2022/05/05 00:36:14;;;;;;;2.83;1.30;;;;;;;19.90;45.77;101963.31;5043329;28;20190;-50
2022/05/05 00:38:39;;;;;;;1.42;1.27;;;;;;;19.91;45.88;101968.56;5041662;28;20044;-50
2022/05/05 00:41:05;;;;;;;1.58;1.48;;;;;;;19.92;46.49;101961.31;5043637;28;20033;-50
2022/05/05 00:43:30;;;;;;;1.85;1.35;;;;;;;19.90;45.89;101966.00;5044604;28;20026;-49
2022/05/05 00:45:55;;;;;;;1.27;1.15;;;;;;;19.90;45.88;101974.09;5064825;28;20021;-49
2022/05/05 00:48:25;;;;;;;1.48;1.38;;;;;;;19.91;46.18;101967.69;5049903;28;20084;-51
2022/05/05 00:50:50;;;;;;;1.52;1.30;;;;;;;19.90;46.08;101969.56;5050300;28;20020;-48
2022/05/05 00:53:15;;;;;;;2.08;1.38;;;;;;;19.89;45.92;101975.13;5049581;28;20021;-48
2022/05/05 00:55:41;;;;;;;1.55;1.40;;;;;;;19.89;45.83;101977.81;5049670;28;20092;-50
2022/05/05 00:58:06;;;;;;;1.35;1.25;;;;;;;19.88;45.67;101976.97;5048640;28;20032;-49
2022/05/05 01:00:32;;;;;;;2.45;1.30;;;;;;;19.88;45.78;101978.78;5047984;28;20029;-48
2022/05/05 01:02:59;;;;;;;1.67;1.30;;;;;;;19.88;46.14;101981.50;5049953;28;20037;-49
2022/05/05 01:05:25;;;;;;;1.85;1.30;;;;;;;19.87;46.14;101975.25;5049966;28;20100;-52
2022/05/05 01:07:50;;;;;;;1.63;1.23;;;;;;;19.84;45.88;101977.41;5049584;28;20029;-47
2022/05/05 01:10:16;;;;;;;1.83;1.55;;;;;;;19.86;46.08;101978.09;5042402;28;20032;-49
2022/05/05 01:12:41;;;;;;;2.17;1.30;;;;;;;19.86;45.87;101980.81;5049914;28;20025;-52
2022/05/05 01:15:07;;;;;;;1.50;1.40;;;;;;;19.80;45.64;101970.63;5081078;28;20025;-48
2022/05/05 01:17:32;;;;;;;2.08;1.50;;;;;;;19.84;45.66;101982.81;5049853;28;20072;-52
2022/05/05 01:20:08;;;;;;;2.10;1.48;;;;;;;19.84;45.88;101980.97;5049710;28;20025;-48
2022/05/05 01:22:34;;;;;;;1.55;1.45;;;;;;;19.81;45.68;101978.56;5039453;28;20041;-52
2022/05/05 01:30:27;;;;;;;2.45;1.50;;;;;;;19.80;46.03;101987.66;5048787;28;20095;-50
2022/05/05 01:32:52;;;;;;;1.60;1.20;;;;;;;19.78;45.79;101976.13;5049702;28;20033;-46
2022/05/05 01:35:17;;;;;;;1.40;1.30;;;;;;;19.78;45.86;101986.94;5049497;28;20040;-49
2022/05/05 01:37:45;;;;;;;1.45;1.23;;;;;;;19.79;45.44;101985.09;5049472;28;20513;-48
2022/05/05 01:40:11;;;;;;;2.05;1.38;;;;;;;19.77;45.90;101985.25;5048726;28;20739;-51
2022/05/05 01:42:38;;;;;;;2.03;1.40;;;;;;;19.78;45.64;101991.50;5049577;28;20032;-51
2022/05/05 01:45:04;;;;;;;2.03;1.55;;;;;;;19.77;45.93;101989.78;5048845;28;20036;-48
2022/05/05 01:47:29;;;;;;;2.13;1.20;;;;;;;19.77;45.47;101993.34;5049680;28;20052;-49
2022/05/05 01:49:59;;;;;;;1.20;1.10;;;;;;;19.77;45.52;101996.03;5049315;28;20045;-48
2022/05/05 01:52:24;;;;;;;2.75;1.40;;;;;;;19.75;45.90;101989.91;5049181;28;20037;-50
2022/05/05 01:54:49;;;;;;;1.30;1.20;;;;;;;19.75;45.71;101992.63;5048001;28;20406;-48
2022/05/05 01:57:14;;;;;;;1.92;1.30;;;;;;;19.74;45.66;101996.31;5046190;28;20136;-50
2022/05/05 01:59:40;;;;;;;1.48;1.38;;;;;;;19.74;45.67;101993.63;5045381;28;20097;-49
2022/05/05 02:02:05;;;;;;;2.58;1.60;;;;;;;19.69;45.47;101987.81;5045834;28;20032;-47
2022/05/05 02:04:30;;;;;;;1.77;1.52;;;;;;;19.72;45.74;101995.63;5046091;28;20036;-52
2022/05/05 02:06:55;;;;;;;1.42;1.15;;;;;;;19.72;45.33;101998.34;5046174;28;20059;-50
2022/05/05 02:09:21;;;;;;;2.08;1.50;;;;;;;19.67;45.69;101990.69;5045263;28;20451;-49
2022/05/05 02:11:46;;;;;;;1.48;1.38;;;;;;;19.70;45.48;101993.06;5046316;28;20513;-50
2022/05/05 02:14:11;;;;;;;1.92;1.48;;;;;;;19.68;45.60;101997.78;5045234;28;20607;-48
2022/05/05 02:16:36;;;;;;;1.20;1.10;;;;;;;19.68;45.51;101997.78;5046336;28;20044;-51
2022/05/05 02:19:01;;;;;;;1.58;1.42;;;;;;;19.66;45.59;101997.06;5045957;28;20052;-50
2022/05/05 02:21:27;;;;;;;1.77;1.52;;;;;;;19.68;45.44;101996.94;5046099;28;20025;-46
2022/05/05 02:23:52;;;;;;;1.52;1.30;;;;;;;19.67;45.54;101998.78;5045039;28;20739;-48
2022/05/05 02:26:17;;;;;;;2.30;1.40;;;;;;;19.66;45.46;101990.81;5044373;28;20104;-48
2022/05/05 02:28:42;;;;;;;1.40;1.30;;;;;;;19.66;44.81;101996.22;5045157;28;20041;-45
2022/05/05 02:31:07;;;;;;;1.40;1.30;;;;;;;19.63;45.41;101993.81;5045577;28;20466;-50
2022/05/05 02:33:33;;;;;;;2.05;1.50;;;;;;;19.64;45.27;101996.38;5045614;28;20329;-53
2022/05/05 02:38:42;;;;;;;2.40;1.33;;;;;;;19.63;45.29;101997.38;5044944;28;20441;-51
2022/05/05 02:41:07;;;;;;;1.52;1.27;;;;;;;19.63;45.41;101994.69;5045825;28;20029;-50
2022/05/05 02:43:32;;;;;;;1.83;1.45;;;;;;;19.63;45.28;101993.81;5045355;28;20036;-53
2022/05/05 02:45:58;;;;;;;1.98;1.40;;;;;;;19.59;45.11;101982.44;5044997;28;20048;-47
2022/05/05 02:48:23;;;;;;;2.13;1.50;;;;;;;19.61;45.41;101988.56;5045425;28;20029;-49
2022/05/05 02:50:48;;;;;;;1.23;1.10;;;;;;;19.61;45.46;101995.81;5045430;28;20037;-47
2022/05/05 02:55:57;;;;;;;2.30;1.67;;;;;;;19.57;44.88;101984.41;5045026;28;20036;-51
2022/05/05 02:58:22;;;;;;;1.52;1.42;;;;;;;19.58;45.24;101986.16;5043765;28;20049;-50
2022/05/05 03:00:47;;;;;;;1.58;1.48;;;;;;;19.58;44.97;101986.16;5044737;28;20044;-47
2022/05/05 03:03:13;;;;;;;1.67;1.20;;;;;;;19.58;44.92;101994.25;5045045;28;20112;-50
2022/05/05 03:05:38;;;;;;;1.50;1.20;;;;;;;19.58;44.88;101996.06;5043808;28;20041;-48
2022/05/05 03:08:04;;;;;;;1.92;1.50;;;;;;;19.58;45.13;101991.53;5043539;28;20036;-49
2022/05/05 03:10:29;;;;;;;2.05;1.58;;;;;;;19.56;44.98;101996.22;5044637;28;20034;-52
2022/05/05 03:12:54;;;;;;;1.40;1.30;;;;;;;19.57;44.65;101999.75;5045042;28;20948;-48
2022/05/05 03:15:19;;;;;;;1.35;1.25;;;;;;;19.56;44.65;102001.63;5044234;28;20026;-48
2022/05/05 03:17:45;;;;;;;1.92;1.45;;;;;;;19.55;44.99;102005.31;5044878;28;20037;-53
2022/05/05 03:20:10;;;;;;;1.25;1.15;;;;;;;19.53;44.70;102001.06;5044576;28;20030;-47
2022/05/05 03:22:36;;;;;;;1.48;1.38;;;;;;;19.56;45.02;102003.47;5047493;28;20029;-48
2022/05/05 03:25:01;;;;;;;1.80;1.63;;;;;;;19.55;45.03;102007.16;5063861;28;20092;-47
2022/05/05 03:27:26;;;;;;;1.42;1.20;;;;;;;19.54;44.74;102009.00;5064774;28;20029;-46
2022/05/05 03:29:51;;;;;;;1.80;1.50;;;;;;;19.54;44.77;102010.84;5062254;28;20033;-51
2022/05/05 03:32:16;;;;;;;1.70;1.60;;;;;;;19.48;44.58;102007.72;5064840;28;20035;-50
2022/05/05 03:34:42;;;;;;;1.30;1.17;;;;;;;19.53;44.94;102020.78;5064269;28;20033;-50
2022/05/05 03:37:07;;;;;;;1.63;1.38;;;;;;;19.42;44.81;102011.03;5064482;28;20049;-51
2022/05/05 03:39:32;;;;;;;1.80;1.50;;;;;;;19.52;44.45;102015.53;5063432;28;20021;-52
2022/05/05 03:41:57;;;;;;;1.60;1.30;;;;;;;19.52;44.56;102024.47;5064381;28;20027;-49
2022/05/05 03:44:22;;;;;;;1.63;1.30;;;;;;;19.50;44.71;102018.41;5063490;28;20052;-49
2022/05/05 03:46:48;;;;;;;1.58;1.33;;;;;;;19.50;44.75;102015.69;5064403;28;20056;-50
2022/05/05 03:49:13;;;;;;;2.00;1.45;;;;;;;19.48;44.65;102020.38;5063985;28;20032;-50
2022/05/05 03:51:38;;;;;;;2.15;1.35;;;;;;;19.49;44.59;102031.00;5061966;28;20033;-50
2022/05/05 03:54:04;;;;;;;1.20;1.10;;;;;;;19.47;44.21;102022.22;5043571;28;20052;-49
2022/05/05 03:56:29;;;;;;;1.65;1.40;;;;;;;19.46;44.42;102020.53;5044200;28;20497;-48
2022/05/05 03:58:54;;;;;;;1.88;1.42;;;;;;;19.46;44.29;102034.00;5043313;28;20033;-49
2022/05/05 04:01:19;;;;;;;2.20;1.63;;;;;;;19.46;44.41;102038.56;5044044;28;20029;-46
2022/05/05 04:03:44;;;;;;;1.52;1.27;;;;;;;19.46;44.33;102039.41;5043884;28;20029;-48
2022/05/05 04:06:11;;;;;;;1.75;1.50;;;;;;;19.45;44.50;102040.41;5043965;28;20387;-50
2022/05/05 04:08:37;;;;;;;1.73;1.60;;;;;;;19.41;44.16;102033.59;5042858;28;20036;-50
2022/05/05 04:11:04;;;;;;;1.90;1.50;;;;;;;19.45;43.97;102042.22;5042527;28;20089;-47
2022/05/05 04:13:30;;;;;;;1.65;1.40;;;;;;;19.43;44.28;102037.00;5043690;28;20113;-47
2022/05/05 04:15:55;;;;;;;1.50;1.27;;;;;;;19.43;44.31;102042.38;5043195;28;20104;-48
2022/05/05 04:18:20;;;;;;;1.65;1.10;;;;;;;19.43;43.94;102046.94;5043293;28;20026;-49
2022/05/05 04:20:47;;;;;;;1.48;1.38;;;;;;;19.41;44.38;102055.19;5043738;28;20032;-47
2022/05/05 04:23:12;;;;;;;1.67;1.30;;;;;;;19.42;43.87;102054.19;5056340;28;20026;-49
2022/05/05 04:25:40;;;;;;;1.67;1.50;;;;;;;19.41;44.20;102057.88;5047432;28;20086;-47
2022/05/05 04:28:07;;;;;;;2.08;1.40;;;;;;;19.40;44.18;102052.59;5043454;28;20025;-47
2022/05/05 04:30:32;;;;;;;1.75;1.27;;;;;;;19.43;44.16;102060.41;5039750;28;20029;-47
2022/05/05 04:32:57;;;;;;;1.45;1.25;;;;;;;19.41;44.19;102063.28;5043330;28;20017;-48
2022/05/05 04:35:23;;;;;;;1.55;1.45;;;;;;;19.38;44.01;102057.31;5040432;28;20063;-50
2022/05/05 04:37:49;;;;;;;1.48;1.38;;;;;;;19.39;44.19;102064.41;5040749;28;20037;-48
2022/05/05 04:40:14;;;;;;;1.55;1.25;;;;;;;19.41;44.35;102068.66;5042515;28;20021;-48
2022/05/05 04:42:39;;;;;;;2.35;1.55;;;;;;;19.41;44.12;102065.97;5043170;28;20037;-48
2022/05/05 04:45:05;;;;;;;1.52;1.35;;;;;;;19.40;44.13;102058.84;5042221;28;20014;-47
2022/05/05 04:47:32;;;;;;;1.48;1.27;;;;;;;19.41;44.00;102068.66;5035053;28;20032;-45
2022/05/05 04:49:57;;;;;;;1.10;1.00;;;;;;;19.40;44.19;102066.94;5031762;28;20028;-48
2022/05/05 04:52:24;;;;;;;1.63;1.30;;;;;;;19.40;44.34;102066.09;5032583;28;20017;-47
2022/05/05 04:54:49;;;;;;;1.33;1.20;;;;;;;19.39;43.95;102064.41;5063329;28;20078;-49
2022/05/05 04:57:14;;;;;;;1.35;1.25;;;;;;;19.39;44.26;102067.94;5043140;28;20041;-48
2022/05/05 04:59:39;;;;;;;2.40;1.45;;;;;;;19.37;44.40;102067.25;5036586;28;20026;-47
2022/05/05 05:02:04;;;;;;;2.15;1.30;;;;;;;19.34;44.30;102061.28;5040278;28;20026;-49
2022/05/05 05:04:30;;;;;;;1.00;0.98;;;;;;;19.38;44.19;102073.50;5042076;28;20030;-47
2022/05/05 05:06:55;;;;;;;1.52;1.40;;;;;;;19.38;44.24;102073.50;5039283;28;20041;-51
2022/05/05 05:09:20;;;;;;;1.70;1.15;;;;;;;19.37;44.34;102077.16;5038951;28;20022;-49
2022/05/05 05:11:45;;;;;;;1.50;1.40;;;;;;;19.34;44.40;102072.91;5037451;28;20064;-48
2022/05/05 05:14:11;;;;;;;1.20;1.05;;;;;;;19.35;44.54;102076.47;5039294;28;20037;-49
2022/05/05 05:16:36;;;;;;;1.40;1.20;;;;;;;19.35;44.20;102085.41;5042823;28;20044;-51
2022/05/05 05:19:02;;;;;;;1.38;1.20;;;;;;;19.35;44.34;102088.09;5039857;28;20044;-48
2022/05/05 05:21:27;;;;;;;1.52;1.33;;;;;;;19.34;44.41;102086.41;5034588;28;20652;-48
2022/05/05 05:23:52;;;;;;;1.55;1.27;;;;;;;19.33;44.38;102090.09;5044020;28;20029;-51
2022/05/05 05:26:18;;;;;;;1.35;1.25;;;;;;;19.35;44.40;102095.34;5035918;28;20029;-48
2022/05/05 05:28:43;;;;;;;1.25;1.15;;;;;;;19.33;44.37;102094.66;5036642;28;20080;-49
2022/05/05 05:31:08;;;;;;;1.55;1.10;;;;;;;19.33;44.10;102098.19;5026297;28;20079;-49
2022/05/05 05:33:34;;;;;;;1.10;1.00;;;;;;;19.30;44.07;102093.06;5043477;28;20041;-46
2022/05/05 05:35:59;;;;;;;1.23;1.13;;;;;;;19.34;44.46;102099.03;5043827;28;20060;-46
2022/05/05 05:38:24;;;;;;;1.70;1.25;;;;;;;19.33;44.46;102098.19;5041290;28;20063;-49
2022/05/05 05:40:49;;;;;;;1.63;1.35;;;;;;;19.32;44.34;102095.63;5045707;28;20021;-47
2022/05/05 05:43:15;;;;;;;1.10;0.93;;;;;;;19.33;44.51;102098.19;5046713;28;20107;-46
2022/05/05 05:45:40;;;;;;;1.05;1.00;;;;;;;19.34;44.40;102104.44;5043184;28;20022;-49
2022/05/05 05:48:06;;;;;;;1.40;1.30;;;;;;;19.34;44.46;102102.59;5046400;28;20026;-49
2022/05/05 05:50:32;;;;;;;1.40;1.30;;;;;;;19.34;44.29;102105.28;5046504;28;20025;-48
2022/05/05 05:52:58;;;;;;;1.40;1.23;;;;;;;19.22;44.53;102088.38;5046519;28;20033;-52
2022/05/05 05:55:23;;;;;;;1.30;1.20;;;;;;;19.35;44.53;102106.97;5045572;28;20028;-49
2022/05/05 05:57:48;;;;;;;1.60;1.40;;;;;;;19.35;44.63;102104.28;5037744;28;20049;-50
2022/05/05 06:00:14;;;;;;;1.30;1.20;;;;;;;19.38;44.40;102113.94;5043773;28;20025;-50
2022/05/05 06:05:23;;;;;;;1.23;1.10;;;;;;;19.37;44.77;102107.69;5026250;28;20060;-51
2022/05/05 06:07:49;;;;;;;1.52;1.23;;;;;;;19.35;44.40;102108.81;5026423;28;20617;-47
2022/05/05 06:10:17;;;;;;;1.27;1.00;;;;;;;19.39;44.92;102115.63;5029816;28;20035;-48
2022/05/05 06:12:42;;;;;;;1.42;1.33;;;;;;;19.38;44.43;102112.09;5039426;28;20028;-52
2022/05/05 06:15:08;;;;;;;1.30;1.20;;;;;;;19.40;44.81;102123.56;5038185;28;20034;-48
2022/05/05 06:17:34;;;;;;;1.60;1.20;;;;;;;19.41;44.40;102124.44;5069120;28;20033;-51
2022/05/05 06:20:00;;;;;;;3.25;1.20;;;;;;;19.39;44.83;102124.56;5043326;28;20021;-51
2022/05/05 06:22:25;;;;;;;1.50;1.25;;;;;;;19.40;45.02;102126.28;5043162;28;20048;-49
2022/05/05 06:24:50;;;;;;;1.77;1.33;;;;;;;19.41;44.74;102129.81;5042285;28;20022;-51
2022/05/05 06:27:15;;;;;;;1.60;1.40;;;;;;;19.41;45.25;102127.13;5042047;28;20088;-49
2022/05/05 06:29:40;;;;;;;1.23;1.10;;;;;;;19.40;45.04;102131.66;5042541;28;20033;-50
2022/05/05 06:32:06;;;;;;;3.05;2.22;;;;;;;19.40;45.10;102128.97;5042373;28;20033;-49
2022/05/05 06:34:31;;;;;;;1.73;1.25;;;;;;;19.41;45.23;102135.22;5036200;28;20080;-52
2022/05/05 06:36:58;;;;;;;2.15;1.42;;;;;;;19.41;45.36;102130.69;5040245;28;20053;-54
2022/05/05 06:39:23;;;;;;;1.65;1.20;;;;;;;19.42;45.02;102126.16;5035276;28;20025;-48
2022/05/05 06:41:48;;;;;;;2.05;1.23;;;;;;;19.44;45.00;102133.09;5040016;28;20582;-48
2022/05/05 06:44:13;;;;;;;2.00;1.23;;;;;;;19.40;45.00;102123.56;5057342;28;20568;-46
2022/05/05 06:46:39;;;;;;;1.70;1.30;;;;;;;19.46;45.26;102136.50;5041087;28;20506;-44
2022/05/05 06:49:05;;;;;;;2.35;1.42;;;;;;;19.47;45.02;102132.81;5042739;28;20039;-52
2022/05/05 06:51:30;;;;;;;2.95;1.30;;;;;;;19.49;45.08;102133.50;5041742;28;20025;-46
2022/05/05 06:53:56;;;;;;;3.22;1.48;;;;;;;19.52;44.91;102136.94;5039817;28;20025;-45
2022/05/05 06:56:23;;;;;;;3.28;1.65;;;;;;;19.49;45.10;102130.81;5041794;28;20093;-50
2022/05/05 06:58:49;;;;;;;1.50;1.13;;;;;;;19.55;44.78;102139.34;5040581;28;20021;-51
2022/05/05 07:06:42;;;;;;;2.75;1.92;;;;;;;19.57;44.14;102140.88;5040371;28;20036;-52
2022/05/05 07:11:52;;;;;;;3.25;2.20;;;;;;;19.60;43.77;102146.00;5042417;28;20029;-53
2022/05/05 07:14:18;;;;;;;4.35;2.40;;;;;;;19.63;43.69;102143.06;5040651;28;20117;-53
2022/05/05 07:16:43;;;;;;;3.88;2.90;;;;;;;19.64;43.53;102141.22;5042637;28;20029;-51
2022/05/05 07:19:09;;;;;;;3.15;2.00;;;;;;;19.64;43.23;102149.31;5042418;28;20051;-48
2022/05/05 07:21:36;;;;;;;3.20;2.40;;;;;;;19.62;43.19;102146.72;5041321;28;20037;-51
2022/05/05 07:24:02;;;;;;;5.90;2.50;;;;;;;19.66;43.16;102152.69;5039257;28;20045;-55
2022/05/05 07:26:27;;;;;;;4.35;2.47;;;;;;;19.66;43.02;102148.16;5041458;28;20030;-54
2022/05/05 07:28:52;;;;;;;5.43;2.53;;;;;;;19.68;42.96;102150.72;5041762;28;20060;-52
2022/05/05 07:31:18;;;;;;;3.92;2.30;;;;;;;19.69;43.31;102155.13;5042439;28;20080;-52
2022/05/05 07:33:44;;;;;;;3.35;2.17;;;;;;;19.70;42.96;102152.25;5042183;28;20075;-55
2022/05/05 07:36:09;;;;;;;2.92;2.50;;;;;;;19.71;42.80;102154.00;5041955;28;20060;-54
2022/05/05 07:38:35;;;;;;;4.43;2.25;;;;;;;19.72;43.19;102155.69;5041417;28;20037;-54
2022/05/05 07:41:00;;;;;;;3.63;2.38;;;;;;;19.73;42.91;102153.84;5041788;28;20696;-53
2022/05/05 07:43:25;;;;;;;4.47;2.83;;;;;;;19.74;42.79;102152.84;5041798;28;20033;-51
2022/05/05 07:45:51;;;;;;;3.50;2.22;;;;;;;19.75;42.75;102153.69;5041415;28;20026;-52
2022/05/05 07:48:16;;;;;;;3.53;2.05;;;;;;;19.75;42.86;102153.69;5041906;28;20034;-56
2022/05/05 07:50:41;;;;;;;2.83;2.15;;;;;;;19.75;42.79;102159.06;5042127;28;20100;-49
2022/05/05 07:53:07;;;;;;;3.88;2.80;;;;;;;19.75;42.58;102157.22;5040765;28;20033;-53
2022/05/05 07:55:32;;;;;;;2.03;1.70;;;;;;;19.73;42.79;102151.13;5040740;28;20041;-51
2022/05/05 07:57:57;;;;;;;2.83;1.60;;;;;;;19.72;43.14;102166.47;5040145;28;20060;-52
2022/05/05 08:00:23;;;;;;;2.00;1.60;;;;;;;19.69;43.27;102166.75;5039924;28;20033;-50
2022/05/05 08:02:48;;;;;;;2.28;1.50;;;;;;;19.63;43.73;102161.09;5040537;28;20025;-49
2022/05/05 08:05:14;;;;;;;2.28;1.55;;;;;;;19.64;43.41;102168.19;5040305;28;20036;-49
2022/05/05 08:07:43;;;;;;;1.83;1.30;;;;;;;19.62;43.63;102164.78;5041700;28;20167;-53
2022/05/05 08:10:10;;;;;;;1.70;1.17;;;;;;;19.59;43.57;102163.19;5040717;28;20052;-53
2022/05/05 08:12:35;;;;;;;8.10;1.70;;;;;;;19.64;43.20;102163.66;5041213;28;20415;-52
2022/05/05 08:15:02;;;;;;;2.67;1.48;;;;;;;19.68;43.34;102167.75;5040351;28;20060;-52
2022/05/05 08:17:28;;;;;;;3.65;2.28;;;;;;;19.72;43.05;102168.34;5040319;28;20037;-53
2022/05/05 08:19:53;;;;;;;2.95;1.95;;;;;;;19.77;43.10;102170.59;5041386;28;20029;-53
2022/05/05 08:22:19;;;;;;;2.42;1.73;;;;;;;19.81;42.82;102169.31;5042431;28;20361;-54
2022/05/05 08:30:12;;;;;;;2.63;1.60;;;;;;;19.87;42.78;102171.44;5040485;28;20102;-53
2022/05/05 08:32:37;;;;;;;2.08;1.50;;;;;;;19.88;42.85;102175.81;5041066;28;20092;-51
2022/05/05 08:35:03;;;;;;;2.15;1.80;;;;;;;19.88;43.09;102175.81;5041401;28;20043;-47
2022/05/05 08:37:28;;;;;;;2.63;1.75;;;;;;;19.87;43.23;102180.38;5041023;28;20419;-50
2022/05/05 08:39:54;;;;;;;3.13;1.50;;;;;;;19.86;43.00;102184.06;5040345;28;20403;-50
2022/05/05 08:42:19;;;;;;;1.30;1.20;;;;;;;19.86;43.49;102185.94;5041024;28;20033;-49
2022/05/05 08:44:44;;;;;;;3.33;1.50;;;;;;;19.83;42.99;102181.66;5040609;28;20501;-44
2022/05/05 08:47:11;;;;;;;1.45;1.20;;;;;;;19.84;43.37;102183.38;5039091;28;20900;-43
2022/05/05 08:49:39;;;;;;;1.58;1.30;;;;;;;19.84;43.44;102190.63;5039763;28;20127;-47
2022/05/05 08:52:08;;;;;;;3.53;1.20;;;;;;;19.84;43.17;102194.19;5040916;28;20030;-48
2022/05/05 08:54:33;;;;;;;;;;;;;;;19.78;43.46;102192.03;5040665;28;20037;-47
2022/05/05 08:56:58;;;;;;;1.67;1.20;;;;;;;19.76;43.50;102188.63;5039692;28;20527;-50
2022/05/05 08:59:25;;;;;;;2.83;1.75;;;;;;;19.80;43.40;102198.16;5040500;28;20491;-50
2022/05/05 09:01:54;;;;;;;1.90;1.27;;;;;;;19.80;43.72;102184.66;5040914;28;20478;-49
2022/05/05 09:04:20;;;;;;;2.50;1.23;;;;;;;19.81;43.38;102191.75;5041192;28;20036;-45
2022/05/05 09:06:48;;;;;;;2.50;1.80;;;;;;;19.83;43.66;102192.44;5045017;28;20037;-47
2022/05/05 09:09:27;;;;;;;1.60;1.20;;;;;;;19.86;43.57;102192.16;5044118;28;20085;-49
2022/05/05 09:12:13;;;;;;;;;;;;;;;19.81;43.60;102194.47;5044791;28;20028;-48
2022/05/05 09:14:44;;;;;;;2.80;1.90;;;;;;;19.84;43.25;102199.56;5043153;28;19917;-49
2022/05/05 09:17:10;;;;;;;2.40;1.45;;;;;;;19.87;43.05;102193.03;5041768;28;20075;-47
2022/05/05 09:19:41;;;;;;;2.15;1.60;;;;;;;19.89;43.18;102202.69;5043239;28;20052;-48
2022/05/05 09:22:08;;;;;;;2.15;1.45;;;;;;;19.92;42.84;102206.94;5044495;28;20048;-46
2022/05/05 09:24:36;;;;;;;3.20;2.05;;;;;;;19.93;43.03;102206.81;5059075;28;20029;-44
2022/05/05 09:27:20;;;;;;;2.85;1.90;;;;;;;19.96;42.92;102208.34;5044902;28;20066;-45
2022/05/05 09:29:55;;;;;;;2.92;2.15;;;;;;;19.95;42.82;102196.69;5043885;28;20022;-47
2022/05/05 09:32:20;;;;;;;1.73;1.30;;;;;;;19.92;42.83;102202.41;5044595;28;20025;-51
2022/05/05 09:34:45;;;;;;;1.65;1.45;;;;;;;19.91;42.89;102202.53;5044224;28;20060;-50
2022/05/05 09:37:20;;;;;;;1.67;1.35;;;;;;;19.89;43.23;102199.13;5044129;28;20139;-47
2022/05/05 09:39:46;;;;;;;1.48;1.35;;;;;;;19.81;43.33;102194.47;5043668;28;20044;-51
2022/05/05 09:42:11;;;;;;;1.45;1.13;;;;;;;19.86;43.10;102199.41;5043912;28;20021;-50
2022/05/05 09:45:11;;;;;;;1.98;1.35;;;;;;;19.85;43.62;102203.97;5043583;28;20361;-45
2022/05/05 09:47:41;;;;;;;2.03;1.23;;;;;;;19.83;43.42;102199.69;5056731;28;20046;-47
2022/05/05 09:50:12;;;;;;;1.73;1.60;;;;;;;19.83;43.65;102203.25;5044037;28;20045;-48
2022/05/05 09:58:21;;;;;;;1.63;1.10;;;;;;;19.82;43.76;102208.78;5040996;28;20052;-44
2022/05/05 10:00:59;;;;;;;2.47;1.42;;;;;;;19.83;43.65;102210.50;5031731;28;20122;-45
2022/05/05 10:06:16;;;;;;;2.75;1.60;;;;;;;19.86;43.77;102211.06;5042168;28;20092;-50
2022/05/05 10:08:45;;;;;;;2.90;1.48;;;;;;;19.87;43.55;102215.47;5042884;28;20106;-47
2022/05/05 10:11:12;;;;;;;1.63;1.38;;;;;;;19.84;43.44;102204.13;5042894;28;20021;-45
2022/05/05 10:13:37;;;;;;;2.17;1.73;;;;;;;19.90;43.41;102220.56;5043028;28;20093;-47
2022/05/05 10:16:06;;;;;;;2.00;1.35;;;;;;;19.91;43.42;102211.47;5041848;28;20032;-48
2022/05/05 10:18:32;;;;;;;;;;;;;;;19.88;43.23;102219.00;5046982;28;20021;-44
2022/05/05 10:20:58;;;;;;;3.42;1.60;;;;;;;19.86;43.41;102213.75;5040201;28;19913;-45
2022/05/05 10:23:45;;;;;;;2.45;1.42;;;;;;;19.89;43.72;102212.63;5046084;28;20402;-48
2022/05/05 10:26:10;;;;;;;2.38;1.30;;;;;;;19.83;43.69;102211.34;5043292;28;20171;-46
2022/05/05 10:28:44;;;;;;;2.47;1.42;;;;;;;19.86;43.40;102213.75;5042686;28;20064;-43
2022/05/05 10:31:11;;;;;;;1.65;1.50;;;;;;;19.85;43.55;102217.47;5042294;28;20056;-46
2022/05/05 10:34:04;;;;;;;2.58;1.45;;;;;;;19.87;43.40;102220.00;5042661;28;20056;-46
2022/05/05 10:36:30;;;;;;;1.48;1.30;;;;;;;19.84;43.45;102218.47;5039689;28;20045;-45
2022/05/05 10:38:56;;;;;;;2.00;1.40;;;;;;;19.85;43.86;102222.88;5041903;28;20036;-45
2022/05/05 10:41:40;;;;;;;2.80;1.30;;;;;;;19.85;43.48;102216.63;5043076;28;20065;-46
2022/05/05 10:44:14;;;;;;;1.30;1.10;;;;;;;19.86;43.64;102216.47;5040941;28;20398;-44
2022/05/05 10:47:01;;;;;;;1.30;1.08;;;;;;;19.87;43.56;102215.47;5042685;28;20033;-47
2022/05/05 10:49:39;;;;;;;2.70;1.20;;;;;;;19.87;43.89;102220.84;5043129;28;20134;-48
2022/05/05 10:52:10;;;;;;;1.67;1.10;;;;;;;19.87;43.74;102217.31;5039362;28;20087;-47
2022/05/05 10:54:46;;;;;;;1.35;1.25;;;;;;;19.87;44.18;102220.00;5041975;28;20387;-47
2022/05/05 10:57:27;;;;;;;1.27;1.13;;;;;;;19.89;44.04;102218.88;5041234;28;20053;-49
2022/05/05 11:00:19;;;;;;;1.40;1.20;;;;;;;19.91;44.09;102222.28;5039967;28;20697;-46
2022/05/05 11:03:03;;;;;;;1.48;1.08;;;;;;;19.92;44.21;102224.00;5039666;28;20604;-44
2022/05/05 11:05:32;;;;;;;2.30;1.30;;;;;;;19.92;44.10;102226.69;5042206;28;20572;-46
2022/05/05 11:08:09;;;;;;;1.98;1.17;;;;;;;19.95;44.25;102225.53;5042204;28;20033;-45
2022/05/05 11:10:45;;;;;;;1.75;1.10;;;;;;;19.95;43.89;102225.53;5038323;28;20076;-47
2022/05/05 11:13:33;;;;;;;1.33;1.15;;;;;;;19.96;44.32;102221.84;5042225;28;20037;-46
2022/05/05 11:22:08;;;;;;;1.30;1.13;;;;;;;19.98;44.52;102233.38;5038559;28;20044;-46
2022/05/05 11:24:33;;;;;;;1.70;1.40;;;;;;;19.97;44.06;102234.38;5040091;28;20025;-53
2022/05/05 11:26:59;;;;;;;1.40;1.10;;;;;;;19.97;44.56;102224.41;5041554;28;20071;-53
2022/05/05 11:29:31;;;;;;;1.88;1.63;;;;;;;20.01;44.32;102232.22;5040642;28;20950;-53
2022/05/05 11:32:05;;;;;;;1.83;1.38;;;;;;;20.02;44.33;102232.09;5056804;28;20089;-51
2022/05/05 11:34:39;;;;;;;2.90;1.63;;;;;;;20.03;44.47;102228.38;5042187;28;20029;-50
2022/05/05 11:37:06;;;;;;;1.85;1.58;;;;;;;20.05;44.41;102225.53;5041609;28;20064;-49
2022/05/05 11:39:32;;;;;;;2.17;1.73;;;;;;;20.06;44.21;102233.50;5036874;28;20026;-54
2022/05/05 11:42:08;;;;;;;2.08;1.40;;;;;;;20.09;44.39;102232.34;5040771;28;20048;-52
2022/05/05 11:44:39;;;;;;;2.22;1.65;;;;;;;20.09;44.59;102227.81;5037956;28;20025;-49
2022/05/05 11:47:09;;;;;;;2.17;1.60;;;;;;;20.11;44.70;102236.63;5066631;28;20030;-51
2022/05/05 11:49:35;;;;;;;2.17;1.60;;;;;;;20.11;44.62;102236.63;5039302;28;20056;-47
2022/05/05 11:52:00;;;;;;;2.67;1.75;;;;;;;20.10;44.57;102231.38;5040897;28;20025;-51
2022/05/05 11:54:28;;;;;;;2.58;1.70;;;;;;;20.12;44.48;102224.81;5039364;28;20040;-53
2022/05/05 11:56:53;;;;;;;3.20;1.95;;;;;;;20.16;44.64;102230.78;5040597;28;20028;-49
2022/05/05 12:02:10;;;;;;;2.45;1.70;;;;;;;20.18;44.41;102229.66;5040356;28;20103;-48
2022/05/05 12:04:44;;;;;;;2.63;1.40;;;;;;;20.21;44.40;102221.22;5041091;28;20044;-51
2022/05/05 12:07:18;;;;;;;2.33;1.65;;;;;;;20.21;44.66;102210.44;5039348;28;20025;-52
2022/05/05 12:09:45;;;;;;;2.47;1.77;;;;;;;20.26;44.68;102212.69;5036629;28;20018;-52
2022/05/05 12:12:11;;;;;;;4.43;2.47;;;;;;;20.29;44.73;102216.97;5038793;28;20594;-50
2022/05/05 12:14:47;;;;;;;3.60;2.17;;;;;;;20.33;44.46;102212.97;5044603;28;20605;-46